sensor_id;sensor_type;location;lat;lon;timestamp;P1;durP1;ratioP1;P2;durP2;ratioP2
75165;SDS011;63747;48.042;10.088;2023-06-22T00:00:42;17.38;;;6.22;;
75165;SDS011;63747;48.042;10.088;2023-06-22T00:03:43;13.93;;;6.38;;
75165;SDS011;63747;48.042;10.088;2023-06-22T00:06:44;12.32;;;5.85;;
75165;SDS011;63747;48.042;10.088;2023-06-22T00:12:45;16.63;;;6.87;;
75165;SDS011;63747;48.042;10.088;2023-06-22T00:18:46;14.30;;;6.00;;
75165;SDS011;63747;48.042;10.088;2023-06-22T00:21:49;11.35;;;6.57;;
75165;SDS011;63747;48.042;10.088;2023-06-22T00:24:54;10.27;;;6.35;;
75165;SDS011;63747;48.042;10.088;2023-06-22T00:27:55;9.18;;;5.85;;
75165;SDS011;63747;48.042;10.088;2023-06-22T00:33:56;11.00;;;5.67;;
75165;SDS011;63747;48.042;10.088;2023-06-22T00:39:59;14.05;;;6.75;;
75165;SDS011;63747;48.042;10.088;2023-06-22T00:46:00;11.47;;;6.40;;
75165;SDS011;63747;48.042;10.088;2023-06-22T00:52:05;13.85;;;6.22;;
75165;SDS011;63747;48.042;10.088;2023-06-22T00:55:13;11.48;;;6.22;;
75165;SDS011;63747;48.042;10.088;2023-06-22T00:58:18;15.00;;;7.57;;
75165;SDS011;63747;48.042;10.088;2023-06-22T01:01:21;12.20;;;6.93;;
75165;SDS011;63747;48.042;10.088;2023-06-22T01:10:49;12.97;;;7.07;;
75165;SDS011;63747;48.042;10.088;2023-06-22T01:17:12;16.23;;;7.55;;
75165;SDS011;63747;48.042;10.088;2023-06-22T01:20:16;14.13;;;7.38;;
75165;SDS011;63747;48.042;10.088;2023-06-22T01:23:25;15.93;;;6.80;;
75165;SDS011;63747;48.042;10.088;2023-06-22T01:26:42;15.55;;;7.28;;
75165;SDS011;63747;48.042;10.088;2023-06-22T01:29:50;17.90;;;7.53;;
75165;SDS011;63747;48.042;10.088;2023-06-22T01:32:53;12.40;;;6.60;;
75165;SDS011;63747;48.042;10.088;2023-06-22T01:35:55;16.65;;;7.32;;
75165;SDS011;63747;48.042;10.088;2023-06-22T01:41:58;14.90;;;7.55;;
75165;SDS011;63747;48.042;10.088;2023-06-22T01:45:00;16.73;;;7.07;;
75165;SDS011;63747;48.042;10.088;2023-06-22T01:48:02;14.20;;;7.15;;
75165;SDS011;63747;48.042;10.088;2023-06-22T01:54:05;15.10;;;7.17;;
75165;SDS011;63747;48.042;10.088;2023-06-22T01:57:07;17.25;;;7.43;;
75165;SDS011;63747;48.042;10.088;2023-06-22T02:00:13;17.13;;;8.00;;
75165;SDS011;63747;48.042;10.088;2023-06-22T02:03:24;16.42;;;7.72;;
75165;SDS011;63747;48.042;10.088;2023-06-22T02:06:31;17.05;;;8.45;;
75165;SDS011;63747;48.042;10.088;2023-06-22T02:09:37;20.10;;;8.35;;
75165;SDS011;63747;48.042;10.088;2023-06-22T02:12:42;14.10;;;8.32;;
75165;SDS011;63747;48.042;10.088;2023-06-22T02:15:45;12.77;;;7.70;;
75165;SDS011;63747;48.042;10.088;2023-06-22T02:18:50;12.43;;;8.00;;
75165;SDS011;63747;48.042;10.088;2023-06-22T02:21:51;13.15;;;8.35;;
75165;SDS011;63747;48.042;10.088;2023-06-22T02:27:53;13.70;;;7.67;;
75165;SDS011;63747;48.042;10.088;2023-06-22T02:30:53;13.48;;;8.32;;
75165;SDS011;63747;48.042;10.088;2023-06-22T02:36:55;14.57;;;8.93;;
75165;SDS011;63747;48.042;10.088;2023-06-22T02:39:55;20.27;;;8.25;;
75165;SDS011;63747;48.042;10.088;2023-06-22T02:42:56;17.60;;;8.82;;
75165;SDS011;63747;48.042;10.088;2023-06-22T02:46:01;13.55;;;8.20;;
75165;SDS011;63747;48.042;10.088;2023-06-22T02:52:02;13.30;;;9.10;;
75165;SDS011;63747;48.042;10.088;2023-06-22T02:55:03;14.50;;;8.32;;
75165;SDS011;63747;48.042;10.088;2023-06-22T03:01:05;14.53;;;8.67;;
75165;SDS011;63747;48.042;10.088;2023-06-22T03:04:07;13.45;;;8.45;;
75165;SDS011;63747;48.042;10.088;2023-06-22T03:07:08;20.80;;;9.10;;
75165;SDS011;63747;48.042;10.088;2023-06-22T03:10:11;19.70;;;8.90;;
75165;SDS011;63747;48.042;10.088;2023-06-22T03:13:13;11.20;;;8.85;;
75165;SDS011;63747;48.042;10.088;2023-06-22T03:16:13;10.90;;;7.88;;
75165;SDS011;63747;48.042;10.088;2023-06-22T03:19:14;14.70;;;8.82;;
75165;SDS011;63747;48.042;10.088;2023-06-22T03:22:15;10.50;;;8.02;;
75165;SDS011;63747;48.042;10.088;2023-06-22T03:25:15;17.25;;;8.98;;
75165;SDS011;63747;48.042;10.088;2023-06-22T03:28:16;16.92;;;8.75;;
75165;SDS011;63747;48.042;10.088;2023-06-22T03:31:17;14.20;;;9.02;;
75165;SDS011;63747;48.042;10.088;2023-06-22T03:34:21;16.02;;;8.68;;
75165;SDS011;63747;48.042;10.088;2023-06-22T03:37:22;14.38;;;8.23;;
75165;SDS011;63747;48.042;10.088;2023-06-22T03:40:22;13.13;;;9.00;;
75165;SDS011;63747;48.042;10.088;2023-06-22T03:46:23;13.03;;;7.97;;
75165;SDS011;63747;48.042;10.088;2023-06-22T03:49:24;13.13;;;9.30;;
75165;SDS011;63747;48.042;10.088;2023-06-22T03:52:25;12.13;;;8.20;;
75165;SDS011;63747;48.042;10.088;2023-06-22T03:58:26;13.10;;;8.17;;
75165;SDS011;63747;48.042;10.088;2023-06-22T04:01:32;12.88;;;8.55;;
75165;SDS011;63747;48.042;10.088;2023-06-22T04:04:33;14.35;;;8.50;;
75165;SDS011;63747;48.042;10.088;2023-06-22T04:07:35;19.25;;;9.73;;
75165;SDS011;63747;48.042;10.088;2023-06-22T04:10:37;17.48;;;9.75;;
75165;SDS011;63747;48.042;10.088;2023-06-22T04:13:37;18.83;;;9.70;;
75165;SDS011;63747;48.042;10.088;2023-06-22T04:16:38;16.15;;;9.63;;
75165;SDS011;63747;48.042;10.088;2023-06-22T04:19:39;17.80;;;9.82;;
75165;SDS011;63747;48.042;10.088;2023-06-22T04:22:40;14.88;;;8.93;;
75165;SDS011;63747;48.042;10.088;2023-06-22T04:25:40;11.90;;;8.38;;
75165;SDS011;63747;48.042;10.088;2023-06-22T04:28:41;13.80;;;9.02;;
75165;SDS011;63747;48.042;10.088;2023-06-22T04:34:42;12.83;;;8.23;;
75165;SDS011;63747;48.042;10.088;2023-06-22T04:37:44;14.52;;;8.85;;
75165;SDS011;63747;48.042;10.088;2023-06-22T04:40:48;14.70;;;8.60;;
75165;SDS011;63747;48.042;10.088;2023-06-22T04:43:49;14.07;;;7.97;;
75165;SDS011;63747;48.042;10.088;2023-06-22T04:46:57;14.65;;;7.97;;
75165;SDS011;63747;48.042;10.088;2023-06-22T04:50:03;13.15;;;8.18;;
75165;SDS011;63747;48.042;10.088;2023-06-22T04:53:05;14.32;;;8.05;;
75165;SDS011;63747;48.042;10.088;2023-06-22T04:56:08;14.60;;;8.27;;
75165;SDS011;63747;48.042;10.088;2023-06-22T04:59:08;13.43;;;7.97;;
75165;SDS011;63747;48.042;10.088;2023-06-22T05:02:12;12.18;;;7.85;;
75165;SDS011;63747;48.042;10.088;2023-06-22T05:08:14;10.52;;;7.28;;
75165;SDS011;63747;48.042;10.088;2023-06-22T05:14:16;11.13;;;7.30;;
75165;SDS011;63747;48.042;10.088;2023-06-22T05:20:18;11.45;;;7.22;;
75165;SDS011;63747;48.042;10.088;2023-06-22T05:26:20;11.10;;;7.20;;
75165;SDS011;63747;48.042;10.088;2023-06-22T05:32:22;10.45;;;8.00;;
75165;SDS011;63747;48.042;10.088;2023-06-22T05:38:23;14.93;;;7.97;;
75165;SDS011;63747;48.042;10.088;2023-06-22T05:44:24;13.43;;;7.33;;
75165;SDS011;63747;48.042;10.088;2023-06-22T05:50:25;11.27;;;7.73;;
75165;SDS011;63747;48.042;10.088;2023-06-22T05:56:27;14.93;;;7.72;;
75165;SDS011;63747;48.042;10.088;2023-06-22T06:02:28;11.40;;;7.87;;
75165;SDS011;63747;48.042;10.088;2023-06-22T06:08:30;12.32;;;7.00;;
75165;SDS011;63747;48.042;10.088;2023-06-22T06:11:30;12.07;;;7.25;;
75165;SDS011;63747;48.042;10.088;2023-06-22T06:14:31;12.02;;;7.50;;
75165;SDS011;63747;48.042;10.088;2023-06-22T06:17:32;10.40;;;7.22;;
75165;SDS011;63747;48.042;10.088;2023-06-22T06:20:32;11.82;;;7.63;;
75165;SDS011;63747;48.042;10.088;2023-06-22T06:23:33;11.93;;;7.57;;
75165;SDS011;63747;48.042;10.088;2023-06-22T06:26:34;11.30;;;6.82;;
75165;SDS011;63747;48.042;10.088;2023-06-22T06:29:35;12.38;;;7.88;;
75165;SDS011;63747;48.042;10.088;2023-06-22T06:32:36;12.63;;;7.97;;
75165;SDS011;63747;48.042;10.088;2023-06-22T06:35:37;11.13;;;6.95;;
75165;SDS011;63747;48.042;10.088;2023-06-22T06:38:38;11.98;;;7.65;;
75165;SDS011;63747;48.042;10.088;2023-06-22T06:41:39;10.90;;;7.20;;
75165;SDS011;63747;48.042;10.088;2023-06-22T06:44:39;10.88;;;7.65;;
75165;SDS011;63747;48.042;10.088;2023-06-22T06:47:40;11.15;;;7.20;;
75165;SDS011;63747;48.042;10.088;2023-06-22T06:50:41;9.68;;;6.82;;
75165;SDS011;63747;48.042;10.088;2023-06-22T06:53:43;11.63;;;7.10;;
75165;SDS011;63747;48.042;10.088;2023-06-22T06:56:44;12.88;;;7.32;;
75165;SDS011;63747;48.042;10.088;2023-06-22T06:59:48;12.40;;;7.88;;
75165;SDS011;63747;48.042;10.088;2023-06-22T07:02:49;9.88;;;7.45;;
75165;SDS011;63747;48.042;10.088;2023-06-22T07:05:50;10.57;;;7.38;;
75165;SDS011;63747;48.042;10.088;2023-06-22T07:08:50;11.40;;;7.70;;
75165;SDS011;63747;48.042;10.088;2023-06-22T07:11:51;12.35;;;7.55;;
75165;SDS011;63747;48.042;10.088;2023-06-22T07:14:52;11.65;;;6.72;;
75165;SDS011;63747;48.042;10.088;2023-06-22T07:17:53;14.88;;;7.55;;
75165;SDS011;63747;48.042;10.088;2023-06-22T07:20:54;12.75;;;7.63;;
75165;SDS011;63747;48.042;10.088;2023-06-22T07:23:55;11.38;;;7.85;;
75165;SDS011;63747;48.042;10.088;2023-06-22T07:26:56;13.88;;;7.38;;
75165;SDS011;63747;48.042;10.088;2023-06-22T07:29:59;12.23;;;7.07;;
75165;SDS011;63747;48.042;10.088;2023-06-22T07:32:59;12.13;;;7.32;;
75165;SDS011;63747;48.042;10.088;2023-06-22T07:36:04;12.23;;;7.65;;
75165;SDS011;63747;48.042;10.088;2023-06-22T07:39:07;10.50;;;7.32;;
75165;SDS011;63747;48.042;10.088;2023-06-22T07:42:08;11.48;;;7.30;;
75165;SDS011;63747;48.042;10.088;2023-06-22T07:45:09;12.95;;;7.53;;
75165;SDS011;63747;48.042;10.088;2023-06-22T07:48:10;12.38;;;7.03;;
75165;SDS011;63747;48.042;10.088;2023-06-22T07:51:10;11.77;;;7.70;;
75165;SDS011;63747;48.042;10.088;2023-06-22T07:54:12;12.18;;;8.55;;
75165;SDS011;63747;48.042;10.088;2023-06-22T07:57:15;12.48;;;7.50;;
75165;SDS011;63747;48.042;10.088;2023-06-22T08:00:16;11.38;;;7.70;;
75165;SDS011;63747;48.042;10.088;2023-06-22T08:03:17;11.15;;;7.38;;
75165;SDS011;63747;48.042;10.088;2023-06-22T08:06:18;13.43;;;8.82;;
75165;SDS011;63747;48.042;10.088;2023-06-22T08:09:18;12.57;;;8.25;;
75165;SDS011;63747;48.042;10.088;2023-06-22T08:12:19;11.95;;;8.68;;
75165;SDS011;63747;48.042;10.088;2023-06-22T08:15:20;13.38;;;7.82;;
75165;SDS011;63747;48.042;10.088;2023-06-22T08:18:21;14.13;;;8.13;;
75165;SDS011;63747;48.042;10.088;2023-06-22T08:21:22;15.23;;;9.00;;
75165;SDS011;63747;48.042;10.088;2023-06-22T08:24:23;11.57;;;9.00;;
75165;SDS011;63747;48.042;10.088;2023-06-22T08:27:23;11.15;;;8.43;;
75165;SDS011;63747;48.042;10.088;2023-06-22T08:30:24;11.45;;;7.85;;
75165;SDS011;63747;48.042;10.088;2023-06-22T08:33:25;16.08;;;9.32;;
75165;SDS011;63747;48.042;10.088;2023-06-22T08:36:28;10.90;;;8.85;;
75165;SDS011;63747;48.042;10.088;2023-06-22T08:39:32;14.70;;;7.85;;
75165;SDS011;63747;48.042;10.088;2023-06-22T08:42:33;14.43;;;8.77;;
75165;SDS011;63747;48.042;10.088;2023-06-22T08:45:34;16.27;;;9.00;;
75165;SDS011;63747;48.042;10.088;2023-06-22T08:48:35;13.75;;;8.80;;
75165;SDS011;63747;48.042;10.088;2023-06-22T08:51:35;12.73;;;9.50;;
75165;SDS011;63747;48.042;10.088;2023-06-22T08:54:36;9.95;;;7.53;;
75165;SDS011;63747;48.042;10.088;2023-06-22T08:57:37;12.45;;;7.75;;
75165;SDS011;63747;48.042;10.088;2023-06-22T09:00:39;14.02;;;8.85;;
75165;SDS011;63747;48.042;10.088;2023-06-22T09:03:39;13.30;;;8.57;;
75165;SDS011;63747;48.042;10.088;2023-06-22T09:06:40;11.00;;;7.38;;
75165;SDS011;63747;48.042;10.088;2023-06-22T09:09:45;13.75;;;8.32;;
75165;SDS011;63747;48.042;10.088;2023-06-22T09:12:45;18.80;;;8.18;;
75165;SDS011;63747;48.042;10.088;2023-06-22T09:15:46;11.13;;;7.82;;
75165;SDS011;63747;48.042;10.088;2023-06-22T09:18:47;13.95;;;8.50;;
75165;SDS011;63747;48.042;10.088;2023-06-22T09:21:48;13.52;;;7.47;;
75165;SDS011;63747;48.042;10.088;2023-06-22T09:24:49;12.13;;;6.55;;
75165;SDS011;63747;48.042;10.088;2023-06-22T09:27:50;14.00;;;7.60;;
75165;SDS011;63747;48.042;10.088;2023-06-22T09:30:50;11.25;;;7.88;;
75165;SDS011;63747;48.042;10.088;2023-06-22T09:33:54;12.93;;;7.90;;
75165;SDS011;63747;48.042;10.088;2023-06-22T09:36:55;17.55;;;8.85;;
75165;SDS011;63747;48.042;10.088;2023-06-22T09:39:57;12.85;;;8.13;;
75165;SDS011;63747;48.042;10.088;2023-06-22T09:42:58;12.68;;;7.97;;
75165;SDS011;63747;48.042;10.088;2023-06-22T09:45:58;13.80;;;7.57;;
75165;SDS011;63747;48.042;10.088;2023-06-22T09:48:59;13.50;;;7.75;;
75165;SDS011;63747;48.042;10.088;2023-06-22T09:52:00;13.35;;;7.07;;
75165;SDS011;63747;48.042;10.088;2023-06-22T09:55:00;11.00;;;7.50;;
75165;SDS011;63747;48.042;10.088;2023-06-22T09:58:03;13.73;;;7.65;;
75165;SDS011;63747;48.042;10.088;2023-06-22T10:01:04;14.43;;;7.35;;
75165;SDS011;63747;48.042;10.088;2023-06-22T10:04:05;13.82;;;8.05;;
75165;SDS011;63747;48.042;10.088;2023-06-22T10:07:05;12.05;;;8.07;;
75165;SDS011;63747;48.042;10.088;2023-06-22T10:10:06;18.85;;;7.45;;
75165;SDS011;63747;48.042;10.088;2023-06-22T10:13:08;11.73;;;7.07;;
75165;SDS011;63747;48.042;10.088;2023-06-22T10:16:10;15.98;;;6.78;;
75165;SDS011;63747;48.042;10.088;2023-06-22T10:19:11;12.15;;;6.80;;
75165;SDS011;63747;48.042;10.088;2023-06-22T10:22:12;14.93;;;7.45;;
75165;SDS011;63747;48.042;10.088;2023-06-22T10:25:12;20.25;;;7.90;;
75165;SDS011;63747;48.042;10.088;2023-06-22T10:28:14;12.60;;;7.20;;
75165;SDS011;63747;48.042;10.088;2023-06-22T10:31:14;14.25;;;7.75;;
75165;SDS011;63747;48.042;10.088;2023-06-22T10:34:16;14.23;;;7.50;;
75165;SDS011;63747;48.042;10.088;2023-06-22T10:37:17;15.50;;;8.50;;
75165;SDS011;63747;48.042;10.088;2023-06-22T10:40:17;14.52;;;7.72;;
75165;SDS011;63747;48.042;10.088;2023-06-22T10:43:18;14.43;;;8.25;;
75165;SDS011;63747;48.042;10.088;2023-06-22T10:46:19;15.65;;;7.72;;
75165;SDS011;63747;48.042;10.088;2023-06-22T10:49:20;13.40;;;8.63;;
75165;SDS011;63747;48.042;10.088;2023-06-22T10:52:21;10.13;;;7.13;;
75165;SDS011;63747;48.042;10.088;2023-06-22T10:55:21;12.30;;;8.15;;
75165;SDS011;63747;48.042;10.088;2023-06-22T10:58:22;14.05;;;8.38;;
75165;SDS011;63747;48.042;10.088;2023-06-22T11:01:23;11.30;;;7.22;;
75165;SDS011;63747;48.042;10.088;2023-06-22T11:04:23;13.00;;;7.15;;
75165;SDS011;63747;48.042;10.088;2023-06-22T11:07:24;14.68;;;8.18;;
75165;SDS011;63747;48.042;10.088;2023-06-22T11:10:27;12.40;;;7.45;;
75165;SDS011;63747;48.042;10.088;2023-06-22T11:13:27;14.48;;;7.13;;
75165;SDS011;63747;48.042;10.088;2023-06-22T11:16:28;13.27;;;7.25;;
75165;SDS011;63747;48.042;10.088;2023-06-22T11:19:28;12.57;;;7.20;;
75165;SDS011;63747;48.042;10.088;2023-06-22T11:22:29;11.27;;;5.60;;
75165;SDS011;63747;48.042;10.088;2023-06-22T11:25:33;15.05;;;6.30;;
75165;SDS011;63747;48.042;10.088;2023-06-22T11:28:34;13.32;;;5.70;;
75165;SDS011;63747;48.042;10.088;2023-06-22T11:31:35;13.85;;;6.80;;
75165;SDS011;63747;48.042;10.088;2023-06-22T11:34:36;15.15;;;6.20;;
75165;SDS011;63747;48.042;10.088;2023-06-22T11:37:37;16.13;;;6.03;;
75165;SDS011;63747;48.042;10.088;2023-06-22T11:40:37;11.38;;;5.57;;
75165;SDS011;63747;48.042;10.088;2023-06-22T11:43:38;14.73;;;6.88;;
75165;SDS011;63747;48.042;10.088;2023-06-22T11:46:39;12.35;;;6.15;;
75165;SDS011;63747;48.042;10.088;2023-06-22T11:49:40;13.13;;;6.63;;
75165;SDS011;63747;48.042;10.088;2023-06-22T11:52:41;13.32;;;6.72;;
75165;SDS011;63747;48.042;10.088;2023-06-22T11:55:42;14.25;;;6.00;;
75165;SDS011;63747;48.042;10.088;2023-06-22T11:58:46;12.88;;;6.75;;
75165;SDS011;63747;48.042;10.088;2023-06-22T12:01:47;14.88;;;6.45;;
75165;SDS011;63747;48.042;10.088;2023-06-22T12:04:47;16.38;;;6.88;;
75165;SDS011;63747;48.042;10.088;2023-06-22T12:07:48;15.68;;;6.00;;
75165;SDS011;63747;48.042;10.088;2023-06-22T12:10:49;15.35;;;6.97;;
75165;SDS011;63747;48.042;10.088;2023-06-22T12:13:50;13.63;;;5.53;;
75165;SDS011;63747;48.042;10.088;2023-06-22T12:16:51;12.88;;;5.93;;
75165;SDS011;63747;48.042;10.088;2023-06-22T12:19:51;15.82;;;5.28;;
75165;SDS011;63747;48.042;10.088;2023-06-22T12:22:52;13.40;;;5.22;;
75165;SDS011;63747;48.042;10.088;2023-06-22T12:25:55;14.20;;;5.35;;
75165;SDS011;63747;48.042;10.088;2023-06-22T12:28:56;13.30;;;5.10;;
75165;SDS011;63747;48.042;10.088;2023-06-22T12:31:56;16.33;;;5.95;;
75165;SDS011;63747;48.042;10.088;2023-06-22T12:34:57;14.93;;;5.85;;
75165;SDS011;63747;48.042;10.088;2023-06-22T12:37:58;16.80;;;5.57;;
75165;SDS011;63747;48.042;10.088;2023-06-22T12:40:59;14.02;;;5.88;;
75165;SDS011;63747;48.042;10.088;2023-06-22T12:43:59;13.77;;;5.20;;
75165;SDS011;63747;48.042;10.088;2023-06-22T12:47:00;13.88;;;6.20;;
75165;SDS011;63747;48.042;10.088;2023-06-22T12:50:01;16.77;;;5.78;;
75165;SDS011;63747;48.042;10.088;2023-06-22T12:53:01;11.57;;;5.22;;
75165;SDS011;63747;48.042;10.088;2023-06-22T12:56:04;15.57;;;5.90;;
75165;SDS011;63747;48.042;10.088;2023-06-22T12:59:04;13.80;;;6.05;;
75165;SDS011;63747;48.042;10.088;2023-06-22T13:02:06;13.40;;;5.70;;
75165;SDS011;63747;48.042;10.088;2023-06-22T13:05:06;12.63;;;5.60;;
75165;SDS011;63747;48.042;10.088;2023-06-22T13:08:07;13.10;;;5.90;;
75165;SDS011;63747;48.042;10.088;2023-06-22T13:11:08;10.43;;;5.50;;
75165;SDS011;63747;48.042;10.088;2023-06-22T13:14:08;16.92;;;5.90;;
75165;SDS011;63747;48.042;10.088;2023-06-22T13:17:09;19.60;;;5.70;;
75165;SDS011;63747;48.042;10.088;2023-06-22T13:20:10;17.10;;;6.38;;
75165;SDS011;63747;48.042;10.088;2023-06-22T13:23:11;19.98;;;6.53;;
75165;SDS011;63747;48.042;10.088;2023-06-22T13:26:12;12.25;;;5.38;;
75165;SDS011;63747;48.042;10.088;2023-06-22T13:29:12;14.32;;;5.85;;
75165;SDS011;63747;48.042;10.088;2023-06-22T13:32:13;17.58;;;6.38;;
75165;SDS011;63747;48.042;10.088;2023-06-22T13:35:13;12.57;;;5.80;;
75165;SDS011;63747;48.042;10.088;2023-06-22T13:38:14;14.40;;;6.43;;
75165;SDS011;63747;48.042;10.088;2023-06-22T13:41:15;8.98;;;5.70;;
75165;SDS011;63747;48.042;10.088;2023-06-22T13:44:16;21.23;;;6.18;;
75165;SDS011;63747;48.042;10.088;2023-06-22T13:47:16;10.95;;;6.50;;
75165;SDS011;63747;48.042;10.088;2023-06-22T13:50:17;14.35;;;6.30;;
75165;SDS011;63747;48.042;10.088;2023-06-22T13:53:18;12.80;;;6.30;;
75165;SDS011;63747;48.042;10.088;2023-06-22T13:56:19;15.02;;;5.55;;
75165;SDS011;63747;48.042;10.088;2023-06-22T13:59:19;17.08;;;5.82;;
75165;SDS011;63747;48.042;10.088;2023-06-22T14:02:21;13.00;;;6.22;;
75165;SDS011;63747;48.042;10.088;2023-06-22T14:05:21;11.77;;;5.90;;
75165;SDS011;63747;48.042;10.088;2023-06-22T14:08:22;10.80;;;5.93;;
75165;SDS011;63747;48.042;10.088;2023-06-22T14:11:24;18.42;;;6.70;;
75165;SDS011;63747;48.042;10.088;2023-06-22T14:14:25;17.63;;;6.28;;
75165;SDS011;63747;48.042;10.088;2023-06-22T14:17:26;14.35;;;6.20;;
75165;SDS011;63747;48.042;10.088;2023-06-22T14:20:27;13.48;;;6.60;;
75165;SDS011;63747;48.042;10.088;2023-06-22T14:23:28;15.25;;;6.40;;
75165;SDS011;63747;48.042;10.088;2023-06-22T14:26:28;14.77;;;6.18;;
75165;SDS011;63747;48.042;10.088;2023-06-22T14:29:29;12.40;;;6.18;;
75165;SDS011;63747;48.042;10.088;2023-06-22T14:32:30;13.13;;;6.38;;
75165;SDS011;63747;48.042;10.088;2023-06-22T14:35:30;13.93;;;6.03;;
75165;SDS011;63747;48.042;10.088;2023-06-22T14:38:31;16.35;;;5.88;;
75165;SDS011;63747;48.042;10.088;2023-06-22T14:41:32;12.68;;;5.78;;
75165;SDS011;63747;48.042;10.088;2023-06-22T14:44:32;16.15;;;6.10;;
75165;SDS011;63747;48.042;10.088;2023-06-22T14:47:33;15.23;;;5.70;;
75165;SDS011;63747;48.042;10.088;2023-06-22T14:50:34;13.25;;;5.40;;
75165;SDS011;63747;48.042;10.088;2023-06-22T14:53:35;14.10;;;6.38;;
75165;SDS011;63747;48.042;10.088;2023-06-22T14:56:36;10.23;;;5.50;;
75165;SDS011;63747;48.042;10.088;2023-06-22T14:59:37;14.80;;;5.85;;
75165;SDS011;63747;48.042;10.088;2023-06-22T15:02:37;14.77;;;5.38;;
75165;SDS011;63747;48.042;10.088;2023-06-22T15:05:38;12.43;;;5.70;;
75165;SDS011;63747;48.042;10.088;2023-06-22T15:08:39;14.38;;;5.70;;
75165;SDS011;63747;48.042;10.088;2023-06-22T15:11:40;14.18;;;6.45;;
75165;SDS011;63747;48.042;10.088;2023-06-22T15:14:41;11.85;;;5.78;;
75165;SDS011;63747;48.042;10.088;2023-06-22T15:17:42;11.70;;;6.07;;
75165;SDS011;63747;48.042;10.088;2023-06-22T15:20:43;12.05;;;5.78;;
75165;SDS011;63747;48.042;10.088;2023-06-22T15:23:45;13.52;;;5.68;;
75165;SDS011;63747;48.042;10.088;2023-06-22T15:26:46;10.43;;;5.82;;
75165;SDS011;63747;48.042;10.088;2023-06-22T15:29:46;15.18;;;5.70;;
75165;SDS011;63747;48.042;10.088;2023-06-22T15:32:48;14.52;;;5.80;;
75165;SDS011;63747;48.042;10.088;2023-06-22T15:35:49;13.90;;;5.85;;
75165;SDS011;63747;48.042;10.088;2023-06-22T15:38:49;11.90;;;5.75;;
75165;SDS011;63747;48.042;10.088;2023-06-22T15:41:50;16.60;;;6.25;;
75165;SDS011;63747;48.042;10.088;2023-06-22T15:44:54;19.55;;;7.07;;
75165;SDS011;63747;48.042;10.088;2023-06-22T15:47:54;13.38;;;6.47;;
75165;SDS011;63747;48.042;10.088;2023-06-22T15:50:55;16.85;;;6.07;;
75165;SDS011;63747;48.042;10.088;2023-06-22T15:53:56;13.13;;;6.10;;
75165;SDS011;63747;48.042;10.088;2023-06-22T15:56:56;14.75;;;7.45;;
75165;SDS011;63747;48.042;10.088;2023-06-22T15:59:57;13.55;;;6.80;;
75165;SDS011;63747;48.042;10.088;2023-06-22T16:02:58;11.85;;;6.10;;
75165;SDS011;63747;48.042;10.088;2023-06-22T16:05:58;10.13;;;5.72;;
75165;SDS011;63747;48.042;10.088;2023-06-22T16:08:59;13.23;;;6.03;;
75165;SDS011;63747;48.042;10.088;2023-06-22T16:12:00;16.95;;;6.55;;
75165;SDS011;63747;48.042;10.088;2023-06-22T16:15:02;17.58;;;6.43;;
75165;SDS011;63747;48.042;10.088;2023-06-22T16:18:03;19.48;;;6.43;;
75165;SDS011;63747;48.042;10.088;2023-06-22T16:21:15;14.68;;;6.15;;
75165;SDS011;63747;48.042;10.088;2023-06-22T16:24:23;14.38;;;6.50;;
75165;SDS011;63747;48.042;10.088;2023-06-22T16:27:24;17.90;;;6.47;;
75165;SDS011;63747;48.042;10.088;2023-06-22T16:30:25;14.27;;;6.28;;
75165;SDS011;63747;48.042;10.088;2023-06-22T16:33:25;16.25;;;6.47;;
75165;SDS011;63747;48.042;10.088;2023-06-22T16:36:26;18.05;;;6.13;;
75165;SDS011;63747;48.042;10.088;2023-06-22T16:39:27;12.80;;;6.13;;
75165;SDS011;63747;48.042;10.088;2023-06-22T16:42:27;19.88;;;6.25;;
75165;SDS011;63747;48.042;10.088;2023-06-22T16:45:28;15.48;;;6.18;;
75165;SDS011;63747;48.042;10.088;2023-06-22T16:48:29;14.07;;;6.10;;
75165;SDS011;63747;48.042;10.088;2023-06-22T16:51:29;11.43;;;5.97;;
75165;SDS011;63747;48.042;10.088;2023-06-22T16:54:30;14.07;;;6.40;;
75165;SDS011;63747;48.042;10.088;2023-06-22T16:57:31;9.13;;;5.93;;
75165;SDS011;63747;48.042;10.088;2023-06-22T17:00:32;11.90;;;6.05;;
75165;SDS011;63747;48.042;10.088;2023-06-22T17:03:35;12.95;;;5.60;;
75165;SDS011;63747;48.042;10.088;2023-06-22T17:06:43;16.75;;;6.38;;
75165;SDS011;63747;48.042;10.088;2023-06-22T17:09:51;10.55;;;5.78;;
75165;SDS011;63747;48.042;10.088;2023-06-22T17:12:52;12.32;;;5.40;;
75165;SDS011;63747;48.042;10.088;2023-06-22T17:15:54;11.60;;;5.45;;
75165;SDS011;63747;48.042;10.088;2023-06-22T17:18:56;13.00;;;5.55;;
75165;SDS011;63747;48.042;10.088;2023-06-22T17:21:57;14.55;;;5.25;;
75165;SDS011;63747;48.042;10.088;2023-06-22T17:24:58;9.90;;;6.00;;
75165;SDS011;63747;48.042;10.088;2023-06-22T17:27:59;13.65;;;5.40;;
75165;SDS011;63747;48.042;10.088;2023-06-22T17:31:09;12.35;;;5.38;;
75165;SDS011;63747;48.042;10.088;2023-06-22T17:34:11;16.92;;;5.82;;
75165;SDS011;63747;48.042;10.088;2023-06-22T17:37:14;12.45;;;5.68;;
75165;SDS011;63747;48.042;10.088;2023-06-22T17:40:15;16.95;;;5.20;;
75165;SDS011;63747;48.042;10.088;2023-06-22T17:43:20;13.65;;;5.20;;
75165;SDS011;63747;48.042;10.088;2023-06-22T17:46:21;12.27;;;4.82;;
75165;SDS011;63747;48.042;10.088;2023-06-22T17:49:26;12.05;;;4.60;;
75165;SDS011;63747;48.042;10.088;2023-06-22T17:52:33;13.63;;;4.63;;
75165;SDS011;63747;48.042;10.088;2023-06-22T17:55:34;12.30;;;4.80;;
75165;SDS011;63747;48.042;10.088;2023-06-22T17:58:34;12.50;;;4.25;;
75165;SDS011;63747;48.042;10.088;2023-06-22T18:01:36;11.40;;;4.50;;
75165;SDS011;63747;48.042;10.088;2023-06-22T18:04:38;11.73;;;4.07;;
75165;SDS011;63747;48.042;10.088;2023-06-22T18:07:38;11.38;;;4.70;;
75165;SDS011;63747;48.042;10.088;2023-06-22T18:10:39;10.75;;;4.22;;
75165;SDS011;63747;48.042;10.088;2023-06-22T18:13:42;7.30;;;4.03;;
75165;SDS011;63747;48.042;10.088;2023-06-22T18:16:45;9.02;;;3.97;;
75165;SDS011;63747;48.042;10.088;2023-06-22T18:19:47;11.00;;;4.32;;
75165;SDS011;63747;48.042;10.088;2023-06-22T18:22:48;11.05;;;4.28;;
75165;SDS011;63747;48.042;10.088;2023-06-22T18:25:49;12.00;;;4.43;;
75165;SDS011;63747;48.042;10.088;2023-06-22T18:28:51;7.97;;;3.58;;
75165;SDS011;63747;48.042;10.088;2023-06-22T18:31:53;12.70;;;4.10;;
75165;SDS011;63747;48.042;10.088;2023-06-22T18:34:54;14.45;;;4.25;;
75165;SDS011;63747;48.042;10.088;2023-06-22T18:37:55;8.50;;;3.80;;
75165;SDS011;63747;48.042;10.088;2023-06-22T18:40:57;9.77;;;3.72;;
75165;SDS011;63747;48.042;10.088;2023-06-22T18:44:02;9.30;;;3.70;;
75165;SDS011;63747;48.042;10.088;2023-06-22T18:47:10;7.53;;;3.97;;
75165;SDS011;63747;48.042;10.088;2023-06-22T18:50:11;7.13;;;3.63;;
75165;SDS011;63747;48.042;10.088;2023-06-22T18:53:15;10.73;;;4.30;;
75165;SDS011;63747;48.042;10.088;2023-06-22T18:56:26;10.20;;;3.95;;
75165;SDS011;63747;48.042;10.088;2023-06-22T18:59:46;8.82;;;4.13;;
75165;SDS011;63747;48.042;10.088;2023-06-22T19:02:57;7.90;;;3.97;;
75165;SDS011;63747;48.042;10.088;2023-06-22T19:05:58;9.15;;;4.05;;
75165;SDS011;63747;48.042;10.088;2023-06-22T19:09:12;8.73;;;4.07;;
75165;SDS011;63747;48.042;10.088;2023-06-22T19:12:17;8.88;;;3.95;;